Decoded Metar for PFYU (FORT YUKON in AK, USA) (IATA:FYU) | Meteo·Mobile Aviation Weather
aviador You're here:

PFYU Decoded Metar

FORT YUKON in AK, USA
Report Time2019-08-24 13:56:00
UTC Time2019-08-24 14:13:06
Flight Rules vfr VFR
WindCalm
Visibility9999 m
Phenomena:N/A
Clouds:N/A
Expected CloudBase > 400 ft AGL from Temp-Dew spread
CeilingNone
Temp-1°C (ISA -13)
Dew Point-2°C (93% RH)
AAT-3.3°C
QNH1006 hPa
Density Alt121 ft
Elevation1,414 ft
Report Wrong Elevation
Raw Report
PFYU 241356Z AUTO 00000KT 10SM CLR M01/M02 A2970=

Extra information for PFYU:More info

Metar Taf Metar & Taf Last 4 Metars F.Rules Stats Wind Profile Meteogram Temp Stats Airport Information Weather charts Add Link Nearby VenuesMetar ALERT Operation Metar Decoded Social comments

AIRNAV info for PFYU